sensor_id;sensor_type;location;lat;lon;timestamp;P1;durP1;ratioP1;P2;durP2;ratioP2
59492;SDS011;45497;43.996;22.876;2023-02-15T00:01:50;40.08;;;19.25;;
59492;SDS011;45497;43.996;22.876;2023-02-15T00:04:18;33.03;;;17.02;;
59492;SDS011;45497;43.996;22.876;2023-02-15T00:06:45;33.78;;;15.85;;
59492;SDS011;45497;43.996;22.876;2023-02-15T00:09:11;25.85;;;14.63;;
59492;SDS011;45497;43.996;22.876;2023-02-15T00:11:37;27.67;;;14.50;;
59492;SDS011;45497;43.996;22.876;2023-02-15T00:14:28;24.63;;;13.80;;
59492;SDS011;45497;43.996;22.876;2023-02-15T00:16:53;26.77;;;13.98;;
59492;SDS011;45497;43.996;22.876;2023-02-15T00:19:20;28.13;;;14.32;;
59492;SDS011;45497;43.996;22.876;2023-02-15T00:21:46;28.55;;;14.65;;
59492;SDS011;45497;43.996;22.876;2023-02-15T00:24:13;22.15;;;13.07;;
59492;SDS011;45497;43.996;22.876;2023-02-15T00:26:40;26.25;;;13.63;;
59492;SDS011;45497;43.996;22.876;2023-02-15T00:29:07;20.35;;;12.20;;
59492;SDS011;45497;43.996;22.876;2023-02-15T00:31:34;21.95;;;12.65;;
59492;SDS011;45497;43.996;22.876;2023-02-15T00:34:04;26.63;;;14.95;;
59492;SDS011;45497;43.996;22.876;2023-02-15T00:36:49;23.35;;;13.35;;
59492;SDS011;45497;43.996;22.876;2023-02-15T00:39:15;23.20;;;12.80;;
59492;SDS011;45497;43.996;22.876;2023-02-15T00:41:42;25.48;;;12.95;;
59492;SDS011;45497;43.996;22.876;2023-02-15T00:44:08;24.30;;;13.45;;
59492;SDS011;45497;43.996;22.876;2023-02-15T00:46:34;23.63;;;12.43;;
59492;SDS011;45497;43.996;22.876;2023-02-15T00:49:00;24.88;;;13.13;;
59492;SDS011;45497;43.996;22.876;2023-02-15T00:51:26;21.00;;;13.07;;
59492;SDS011;45497;43.996;22.876;2023-02-15T00:53:51;26.40;;;13.50;;
59492;SDS011;45497;43.996;22.876;2023-02-15T00:56:17;23.25;;;13.63;;
59492;SDS011;45497;43.996;22.876;2023-02-15T00:58:42;25.90;;;13.55;;
59492;SDS011;45497;43.996;22.876;2023-02-15T01:01:09;22.20;;;13.43;;
59492;SDS011;45497;43.996;22.876;2023-02-15T01:03:35;26.93;;;14.57;;
59492;SDS011;45497;43.996;22.876;2023-02-15T01:06:02;24.43;;;14.20;;
59492;SDS011;45497;43.996;22.876;2023-02-15T01:08:27;24.23;;;13.85;;
59492;SDS011;45497;43.996;22.876;2023-02-15T01:10:53;24.63;;;13.98;;
59492;SDS011;45497;43.996;22.876;2023-02-15T01:13:19;23.00;;;13.52;;
59492;SDS011;45497;43.996;22.876;2023-02-15T01:15:44;23.17;;;13.60;;
59492;SDS011;45497;43.996;22.876;2023-02-15T01:18:10;25.63;;;14.30;;
59492;SDS011;45497;43.996;22.876;2023-02-15T01:20:37;24.83;;;14.40;;
59492;SDS011;45497;43.996;22.876;2023-02-15T01:23:04;26.88;;;14.70;;
59492;SDS011;45497;43.996;22.876;2023-02-15T01:25:32;24.15;;;13.30;;
59492;SDS011;45497;43.996;22.876;2023-02-15T01:27:58;28.52;;;14.75;;
59492;SDS011;45497;43.996;22.876;2023-02-15T01:30:24;29.33;;;16.30;;
59492;SDS011;45497;43.996;22.876;2023-02-15T01:32:49;28.93;;;15.70;;
59492;SDS011;45497;43.996;22.876;2023-02-15T01:35:14;25.10;;;14.23;;
59492;SDS011;45497;43.996;22.876;2023-02-15T01:37:40;24.27;;;13.68;;
59492;SDS011;45497;43.996;22.876;2023-02-15T01:40:06;32.30;;;18.17;;
59492;SDS011;45497;43.996;22.876;2023-02-15T01:42:37;32.00;;;18.90;;
59492;SDS011;45497;43.996;22.876;2023-02-15T01:45:03;32.23;;;19.10;;
59492;SDS011;45497;43.996;22.876;2023-02-15T01:47:46;35.30;;;22.40;;
59492;SDS011;45497;43.996;22.876;2023-02-15T01:50:18;32.88;;;19.30;;
59492;SDS011;45497;43.996;22.876;2023-02-15T01:52:52;25.65;;;14.90;;
59492;SDS011;45497;43.996;22.876;2023-02-15T01:55:25;31.95;;;17.98;;
59492;SDS011;45497;43.996;22.876;2023-02-15T01:57:53;33.60;;;21.90;;
59492;SDS011;45497;43.996;22.876;2023-02-15T02:00:19;26.33;;;14.27;;
59492;SDS011;45497;43.996;22.876;2023-02-15T02:02:46;25.73;;;15.27;;
59492;SDS011;45497;43.996;22.876;2023-02-15T02:05:14;23.67;;;13.48;;
59492;SDS011;45497;43.996;22.876;2023-02-15T02:07:41;29.70;;;18.47;;
59492;SDS011;45497;43.996;22.876;2023-02-15T02:10:11;23.95;;;13.25;;
59492;SDS011;45497;43.996;22.876;2023-02-15T02:12:46;22.42;;;12.85;;
59492;SDS011;45497;43.996;22.876;2023-02-15T02:15:14;20.65;;;12.27;;
59492;SDS011;45497;43.996;22.876;2023-02-15T02:17:48;23.45;;;13.27;;
59492;SDS011;45497;43.996;22.876;2023-02-15T02:20:26;22.25;;;13.00;;
59492;SDS011;45497;43.996;22.876;2023-02-15T02:30:53;25.35;;;15.10;;
59492;SDS011;45497;43.996;22.876;2023-02-15T02:34:01;23.58;;;15.15;;
59492;SDS011;45497;43.996;22.876;2023-02-15T02:42:06;24.30;;;13.40;;
59492;SDS011;45497;43.996;22.876;2023-02-15T02:44:42;24.58;;;13.85;;
59492;SDS011;45497;43.996;22.876;2023-02-15T02:47:36;22.20;;;13.30;;
59492;SDS011;45497;43.996;22.876;2023-02-15T02:50:08;24.08;;;13.52;;
59492;SDS011;45497;43.996;22.876;2023-02-15T02:55:15;21.65;;;12.63;;
59492;SDS011;45497;43.996;22.876;2023-02-15T02:58:28;21.98;;;11.98;;
59492;SDS011;45497;43.996;22.876;2023-02-15T03:00:42;23.10;;;13.05;;
59492;SDS011;45497;43.996;22.876;2023-02-15T03:03:12;22.90;;;13.20;;
59492;SDS011;45497;43.996;22.876;2023-02-15T03:05:44;19.83;;;12.00;;
59492;SDS011;45497;43.996;22.876;2023-02-15T03:08:13;22.20;;;12.77;;
59492;SDS011;45497;43.996;22.876;2023-02-15T03:10:46;24.40;;;13.38;;
59492;SDS011;45497;43.996;22.876;2023-02-15T03:13:14;21.90;;;13.02;;
59492;SDS011;45497;43.996;22.876;2023-02-15T03:15:40;23.15;;;12.93;;
59492;SDS011;45497;43.996;22.876;2023-02-15T03:18:28;21.80;;;11.90;;
59492;SDS011;45497;43.996;22.876;2023-02-15T03:20:57;23.10;;;13.25;;
59492;SDS011;45497;43.996;22.876;2023-02-15T03:23:28;21.67;;;12.85;;
59492;SDS011;45497;43.996;22.876;2023-02-15T03:25:56;20.80;;;13.10;;
59492;SDS011;45497;43.996;22.876;2023-02-15T03:28:27;20.70;;;12.13;;
59492;SDS011;45497;43.996;22.876;2023-02-15T03:30:58;21.13;;;12.37;;
59492;SDS011;45497;43.996;22.876;2023-02-15T03:33:26;20.83;;;11.77;;
59492;SDS011;45497;43.996;22.876;2023-02-15T03:38:29;26.30;;;14.90;;
59492;SDS011;45497;43.996;22.876;2023-02-15T03:41:02;20.70;;;12.93;;
59492;SDS011;45497;43.996;22.876;2023-02-15T03:43:56;21.55;;;13.07;;
59492;SDS011;45497;43.996;22.876;2023-02-15T03:46:33;21.88;;;12.63;;
59492;SDS011;45497;43.996;22.876;2023-02-15T03:49:14;23.50;;;12.75;;
59492;SDS011;45497;43.996;22.876;2023-02-15T03:51:47;21.05;;;12.40;;
59492;SDS011;45497;43.996;22.876;2023-02-15T03:54:16;21.35;;;12.38;;
59492;SDS011;45497;43.996;22.876;2023-02-15T03:57:11;22.60;;;13.63;;
59492;SDS011;45497;43.996;22.876;2023-02-15T04:00:17;21.02;;;12.10;;
59492;SDS011;45497;43.996;22.876;2023-02-15T04:03:11;20.73;;;11.98;;
59492;SDS011;45497;43.996;22.876;2023-02-15T04:05:41;21.55;;;12.65;;
59492;SDS011;45497;43.996;22.876;2023-02-15T04:08:07;24.27;;;13.13;;
59492;SDS011;45497;43.996;22.876;2023-02-15T04:10:34;29.77;;;15.43;;
59492;SDS011;45497;43.996;22.876;2023-02-15T04:13:21;23.70;;;13.90;;
59492;SDS011;45497;43.996;22.876;2023-02-15T04:15:48;23.95;;;14.55;;
59492;SDS011;45497;43.996;22.876;2023-02-15T04:18:33;26.98;;;15.32;;
59492;SDS011;45497;43.996;22.876;2023-02-15T04:21:19;25.67;;;14.77;;
59492;SDS011;45497;43.996;22.876;2023-02-15T04:24:05;26.02;;;14.68;;
59492;SDS011;45497;43.996;22.876;2023-02-15T04:26:50;27.35;;;15.88;;
59492;SDS011;45497;43.996;22.876;2023-02-15T04:29:18;27.42;;;15.55;;
59492;SDS011;45497;43.996;22.876;2023-02-15T04:31:47;24.75;;;14.98;;
59492;SDS011;45497;43.996;22.876;2023-02-15T04:34:13;25.80;;;16.10;;
59492;SDS011;45497;43.996;22.876;2023-02-15T04:36:39;25.48;;;15.13;;
59492;SDS011;45497;43.996;22.876;2023-02-15T04:39:05;23.60;;;15.05;;
59492;SDS011;45497;43.996;22.876;2023-02-15T04:41:31;30.85;;;17.02;;
59492;SDS011;45497;43.996;22.876;2023-02-15T04:43:57;24.90;;;15.68;;
59492;SDS011;45497;43.996;22.876;2023-02-15T04:46:24;30.92;;;16.83;;
59492;SDS011;45497;43.996;22.876;2023-02-15T04:48:50;29.90;;;17.98;;
59492;SDS011;45497;43.996;22.876;2023-02-15T04:51:15;30.55;;;19.50;;
59492;SDS011;45497;43.996;22.876;2023-02-15T04:53:41;47.95;;;25.35;;
59492;SDS011;45497;43.996;22.876;2023-02-15T04:56:06;45.13;;;25.47;;
59492;SDS011;45497;43.996;22.876;2023-02-15T04:58:32;31.23;;;19.97;;
59492;SDS011;45497;43.996;22.876;2023-02-15T05:00:57;27.33;;;16.67;;
59492;SDS011;45497;43.996;22.876;2023-02-15T05:03:23;28.08;;;19.27;;
59492;SDS011;45497;43.996;22.876;2023-02-15T05:05:49;29.25;;;17.02;;
59492;SDS011;45497;43.996;22.876;2023-02-15T05:08:14;44.63;;;28.15;;
59492;SDS011;45497;43.996;22.876;2023-02-15T05:10:40;39.85;;;28.00;;
59492;SDS011;45497;43.996;22.876;2023-02-15T05:13:05;33.43;;;21.80;;
59492;SDS011;45497;43.996;22.876;2023-02-15T05:15:31;36.87;;;23.53;;
59492;SDS011;45497;43.996;22.876;2023-02-15T05:17:58;45.53;;;29.05;;
59492;SDS011;45497;43.996;22.876;2023-02-15T05:20:24;32.30;;;21.38;;
59492;SDS011;45497;43.996;22.876;2023-02-15T05:22:52;28.40;;;16.97;;
59492;SDS011;45497;43.996;22.876;2023-02-15T05:25:18;23.58;;;14.88;;
59492;SDS011;45497;43.996;22.876;2023-02-15T05:28:02;26.33;;;16.02;;
59492;SDS011;45497;43.996;22.876;2023-02-15T05:33:29;29.23;;;16.58;;
59492;SDS011;45497;43.996;22.876;2023-02-15T05:35:56;30.43;;;18.13;;
59492;SDS011;45497;43.996;22.876;2023-02-15T05:38:21;24.83;;;15.77;;
59492;SDS011;45497;43.996;22.876;2023-02-15T05:40:46;27.42;;;16.65;;
59492;SDS011;45497;43.996;22.876;2023-02-15T05:43:12;25.38;;;15.30;;
59492;SDS011;45497;43.996;22.876;2023-02-15T05:45:37;27.53;;;15.60;;
59492;SDS011;45497;43.996;22.876;2023-02-15T05:48:03;28.20;;;16.10;;
59492;SDS011;45497;43.996;22.876;2023-02-15T05:50:28;28.27;;;16.20;;
59492;SDS011;45497;43.996;22.876;2023-02-15T05:52:54;34.83;;;18.73;;
59492;SDS011;45497;43.996;22.876;2023-02-15T05:55:19;33.63;;;20.40;;
59492;SDS011;45497;43.996;22.876;2023-02-15T05:57:45;29.40;;;18.60;;
59492;SDS011;45497;43.996;22.876;2023-02-15T06:00:11;35.33;;;21.43;;
59492;SDS011;45497;43.996;22.876;2023-02-15T06:02:38;27.60;;;17.45;;
59492;SDS011;45497;43.996;22.876;2023-02-15T06:05:05;28.58;;;17.27;;
59492;SDS011;45497;43.996;22.876;2023-02-15T06:07:32;32.07;;;18.63;;
59492;SDS011;45497;43.996;22.876;2023-02-15T06:09:58;31.03;;;18.90;;
59492;SDS011;45497;43.996;22.876;2023-02-15T06:12:23;32.33;;;19.23;;
59492;SDS011;45497;43.996;22.876;2023-02-15T06:14:49;30.15;;;18.25;;
59492;SDS011;45497;43.996;22.876;2023-02-15T06:17:15;25.97;;;16.47;;
59492;SDS011;45497;43.996;22.876;2023-02-15T06:19:41;32.72;;;19.35;;
59492;SDS011;45497;43.996;22.876;2023-02-15T06:22:07;43.33;;;26.23;;
59492;SDS011;45497;43.996;22.876;2023-02-15T06:24:32;42.90;;;25.40;;
59492;SDS011;45497;43.996;22.876;2023-02-15T06:26:58;41.10;;;23.85;;
59492;SDS011;45497;43.996;22.876;2023-02-15T06:29:23;44.20;;;27.20;;
59492;SDS011;45497;43.996;22.876;2023-02-15T06:31:49;54.60;;;34.63;;
59492;SDS011;45497;43.996;22.876;2023-02-15T06:34:15;38.40;;;24.38;;
59492;SDS011;45497;43.996;22.876;2023-02-15T06:36:40;40.55;;;23.75;;
59492;SDS011;45497;43.996;22.876;2023-02-15T06:39:06;40.03;;;23.92;;
59492;SDS011;45497;43.996;22.876;2023-02-15T06:41:31;38.35;;;23.15;;
59492;SDS011;45497;43.996;22.876;2023-02-15T06:43:57;36.38;;;22.92;;
59492;SDS011;45497;43.996;22.876;2023-02-15T06:46:22;34.77;;;21.53;;
59492;SDS011;45497;43.996;22.876;2023-02-15T06:48:48;36.27;;;22.07;;
59492;SDS011;45497;43.996;22.876;2023-02-15T06:51:14;33.47;;;20.87;;
59492;SDS011;45497;43.996;22.876;2023-02-15T06:53:39;39.13;;;23.83;;
59492;SDS011;45497;43.996;22.876;2023-02-15T06:56:07;38.28;;;21.30;;
59492;SDS011;45497;43.996;22.876;2023-02-15T06:58:40;45.85;;;28.52;;
59492;SDS011;45497;43.996;22.876;2023-02-15T07:01:07;34.03;;;20.10;;
59492;SDS011;45497;43.996;22.876;2023-02-15T07:03:34;33.08;;;19.60;;
59492;SDS011;45497;43.996;22.876;2023-02-15T07:06:01;62.10;;;34.38;;
59492;SDS011;45497;43.996;22.876;2023-02-15T07:08:28;52.60;;;31.30;;
59492;SDS011;45497;43.996;22.876;2023-02-15T07:10:54;38.75;;;23.40;;
59492;SDS011;45497;43.996;22.876;2023-02-15T07:13:40;32.88;;;19.60;;
59492;SDS011;45497;43.996;22.876;2023-02-15T07:16:07;33.42;;;20.80;;
59492;SDS011;45497;43.996;22.876;2023-02-15T07:18:34;33.03;;;20.52;;
59492;SDS011;45497;43.996;22.876;2023-02-15T07:20:59;31.07;;;20.77;;
59492;SDS011;45497;43.996;22.876;2023-02-15T07:23:24;30.50;;;19.40;;
59492;SDS011;45497;43.996;22.876;2023-02-15T07:25:56;48.63;;;31.58;;
59492;SDS011;45497;43.996;22.876;2023-02-15T07:28:22;40.67;;;24.65;;
59492;SDS011;45497;43.996;22.876;2023-02-15T07:30:48;30.60;;;18.83;;
59492;SDS011;45497;43.996;22.876;2023-02-15T07:33:13;30.80;;;18.90;;
59492;SDS011;45497;43.996;22.876;2023-02-15T07:35:48;29.33;;;18.35;;
59492;SDS011;45497;43.996;22.876;2023-02-15T07:38:18;30.25;;;18.90;;
59492;SDS011;45497;43.996;22.876;2023-02-15T07:40:44;28.88;;;18.88;;
59492;SDS011;45497;43.996;22.876;2023-02-15T07:43:09;28.35;;;17.98;;
59492;SDS011;45497;43.996;22.876;2023-02-15T07:45:36;29.95;;;18.30;;
59492;SDS011;45497;43.996;22.876;2023-02-15T07:48:01;24.60;;;15.50;;
59492;SDS011;45497;43.996;22.876;2023-02-15T07:50:28;24.73;;;15.50;;
59492;SDS011;45497;43.996;22.876;2023-02-15T07:52:54;27.38;;;17.33;;
59492;SDS011;45497;43.996;22.876;2023-02-15T07:55:20;26.85;;;15.35;;
59492;SDS011;45497;43.996;22.876;2023-02-15T07:57:46;26.02;;;16.20;;
59492;SDS011;45497;43.996;22.876;2023-02-15T08:00:13;19.27;;;13.77;;
59492;SDS011;45497;43.996;22.876;2023-02-15T08:02:41;28.63;;;17.05;;
59492;SDS011;45497;43.996;22.876;2023-02-15T08:05:12;22.45;;;13.38;;
59492;SDS011;45497;43.996;22.876;2023-02-15T08:07:37;25.07;;;15.50;;
59492;SDS011;45497;43.996;22.876;2023-02-15T08:10:03;24.50;;;16.40;;
59492;SDS011;45497;43.996;22.876;2023-02-15T08:12:28;22.15;;;14.48;;
59492;SDS011;45497;43.996;22.876;2023-02-15T08:14:54;29.50;;;16.70;;
59492;SDS011;45497;43.996;22.876;2023-02-15T08:17:19;24.30;;;15.57;;
59492;SDS011;45497;43.996;22.876;2023-02-15T08:19:45;36.73;;;23.23;;
59492;SDS011;45497;43.996;22.876;2023-02-15T08:22:12;25.95;;;16.00;;
59492;SDS011;45497;43.996;22.876;2023-02-15T08:24:39;22.90;;;14.95;;
59492;SDS011;45497;43.996;22.876;2023-02-15T08:27:06;20.88;;;13.70;;
59492;SDS011;45497;43.996;22.876;2023-02-15T08:29:34;22.60;;;14.27;;
59492;SDS011;45497;43.996;22.876;2023-02-15T08:32:08;24.45;;;15.45;;
59492;SDS011;45497;43.996;22.876;2023-02-15T08:34:38;21.10;;;14.05;;
59492;SDS011;45497;43.996;22.876;2023-02-15T08:37:05;21.75;;;13.70;;
59492;SDS011;45497;43.996;22.876;2023-02-15T08:39:31;25.38;;;14.35;;
59492;SDS011;45497;43.996;22.876;2023-02-15T08:41:57;19.53;;;11.93;;
59492;SDS011;45497;43.996;22.876;2023-02-15T08:44:22;23.23;;;13.90;;
59492;SDS011;45497;43.996;22.876;2023-02-15T08:46:48;21.00;;;13.43;;
59492;SDS011;45497;43.996;22.876;2023-02-15T08:49:15;22.53;;;15.10;;
59492;SDS011;45497;43.996;22.876;2023-02-15T08:51:43;24.50;;;13.82;;
59492;SDS011;45497;43.996;22.876;2023-02-15T08:54:09;25.17;;;14.68;;
59492;SDS011;45497;43.996;22.876;2023-02-15T08:56:39;24.45;;;14.65;;
59492;SDS011;45497;43.996;22.876;2023-02-15T08:59:06;24.67;;;14.30;;
59492;SDS011;45497;43.996;22.876;2023-02-15T09:01:36;21.92;;;12.45;;
59492;SDS011;45497;43.996;22.876;2023-02-15T09:04:03;19.00;;;11.93;;
59492;SDS011;45497;43.996;22.876;2023-02-15T09:06:31;20.98;;;12.45;;
59492;SDS011;45497;43.996;22.876;2023-02-15T09:08:57;20.33;;;11.40;;
59492;SDS011;45497;43.996;22.876;2023-02-15T09:11:29;29.67;;;18.10;;
59492;SDS011;45497;43.996;22.876;2023-02-15T09:14:05;22.85;;;13.32;;
59492;SDS011;45497;43.996;22.876;2023-02-15T09:16:34;22.27;;;15.57;;
59492;SDS011;45497;43.996;22.876;2023-02-15T09:19:01;18.88;;;10.60;;
59492;SDS011;45497;43.996;22.876;2023-02-15T09:21:29;22.40;;;12.10;;
59492;SDS011;45497;43.996;22.876;2023-02-15T09:23:59;17.35;;;10.98;;
59492;SDS011;45497;43.996;22.876;2023-02-15T09:26:27;21.35;;;12.40;;
59492;SDS011;45497;43.996;22.876;2023-02-15T09:28:56;20.13;;;12.20;;
59492;SDS011;45497;43.996;22.876;2023-02-15T09:31:27;21.65;;;13.07;;
59492;SDS011;45497;43.996;22.876;2023-02-15T09:33:54;15.55;;;9.40;;
59492;SDS011;45497;43.996;22.876;2023-02-15T09:38:58;20.60;;;11.90;;
59492;SDS011;45497;43.996;22.876;2023-02-15T09:52:34;17.60;;;10.98;;
59492;SDS011;45497;43.996;22.876;2023-02-15T10:17:32;17.27;;;11.07;;
59492;SDS011;45497;43.996;22.876;2023-02-15T10:23:28;12.95;;;9.25;;
59492;SDS011;45497;43.996;22.876;2023-02-15T10:31:55;20.85;;;12.10;;
59492;SDS011;45497;43.996;22.876;2023-02-15T10:34:39;13.52;;;8.93;;
59492;SDS011;45497;43.996;22.876;2023-02-15T10:45:57;96.27;;;58.20;;
59492;SDS011;45497;43.996;22.876;2023-02-15T10:51:05;15.43;;;8.60;;
59492;SDS011;45497;43.996;22.876;2023-02-15T11:07:44;17.10;;;9.98;;
59492;SDS011;45497;43.996;22.876;2023-02-15T11:13:14;14.85;;;9.35;;
59492;SDS011;45497;43.996;22.876;2023-02-15T11:15:44;12.77;;;9.05;;
59492;SDS011;45497;43.996;22.876;2023-02-15T11:18:24;16.20;;;9.70;;
59492;SDS011;45497;43.996;22.876;2023-02-15T11:23:40;12.88;;;7.97;;
59492;SDS011;45497;43.996;22.876;2023-02-15T11:26:17;13.88;;;8.55;;
59492;SDS011;45497;43.996;22.876;2023-02-15T11:28:57;13.10;;;8.65;;
59492;SDS011;45497;43.996;22.876;2023-02-15T11:31:33;12.43;;;9.05;;
59492;SDS011;45497;43.996;22.876;2023-02-15T11:34:18;16.38;;;9.40;;
59492;SDS011;45497;43.996;22.876;2023-02-15T11:37:07;17.05;;;10.25;;
59492;SDS011;45497;43.996;22.876;2023-02-15T11:39:37;14.67;;;9.63;;
59492;SDS011;45497;43.996;22.876;2023-02-15T11:42:21;13.73;;;9.03;;
59492;SDS011;45497;43.996;22.876;2023-02-15T11:47:44;14.65;;;9.85;;
59492;SDS011;45497;43.996;22.876;2023-02-15T11:50:14;14.67;;;9.93;;
59492;SDS011;45497;43.996;22.876;2023-02-15T11:52:43;13.70;;;9.47;;
59492;SDS011;45497;43.996;22.876;2023-02-15T12:00:39;12.30;;;8.57;;
59492;SDS011;45497;43.996;22.876;2023-02-15T12:03:22;15.30;;;10.00;;
59492;SDS011;45497;43.996;22.876;2023-02-15T12:05:58;12.57;;;9.10;;
59492;SDS011;45497;43.996;22.876;2023-02-15T12:08:30;12.70;;;8.65;;
59492;SDS011;45497;43.996;22.876;2023-02-15T12:11:08;13.02;;;9.32;;
59492;SDS011;45497;43.996;22.876;2023-02-15T12:13:58;13.10;;;9.38;;
59492;SDS011;45497;43.996;22.876;2023-02-15T12:16:32;14.97;;;9.10;;
59492;SDS011;45497;43.996;22.876;2023-02-15T12:19:10;13.45;;;9.88;;
59492;SDS011;45497;43.996;22.876;2023-02-15T12:21:57;13.77;;;8.55;;
59492;SDS011;45497;43.996;22.876;2023-02-15T12:24:34;12.68;;;9.57;;
59492;SDS011;45497;43.996;22.876;2023-02-15T12:27:12;15.20;;;9.27;;
59492;SDS011;45497;43.996;22.876;2023-02-15T12:29:42;12.63;;;8.80;;
59492;SDS011;45497;43.996;22.876;2023-02-15T12:32:16;20.10;;;12.57;;
59492;SDS011;45497;43.996;22.876;2023-02-15T12:34:44;15.52;;;10.15;;
59492;SDS011;45497;43.996;22.876;2023-02-15T12:37:23;14.85;;;10.20;;
59492;SDS011;45497;43.996;22.876;2023-02-15T12:40:00;17.30;;;11.10;;
59492;SDS011;45497;43.996;22.876;2023-02-15T12:42:43;14.40;;;9.43;;
59492;SDS011;45497;43.996;22.876;2023-02-15T12:50:44;13.38;;;9.95;;
59492;SDS011;45497;43.996;22.876;2023-02-15T12:53:14;14.57;;;10.20;;
59492;SDS011;45497;43.996;22.876;2023-02-15T12:58:29;11.50;;;8.90;;
59492;SDS011;45497;43.996;22.876;2023-02-15T13:03:33;15.10;;;9.07;;
59492;SDS011;45497;43.996;22.876;2023-02-15T13:05:59;22.07;;;13.47;;
59492;SDS011;45497;43.996;22.876;2023-02-15T13:10:54;14.97;;;9.73;;
59492;SDS011;45497;43.996;22.876;2023-02-15T13:13:23;12.45;;;9.00;;
59492;SDS011;45497;43.996;22.876;2023-02-15T13:15:52;13.52;;;9.93;;
59492;SDS011;45497;43.996;22.876;2023-02-15T13:21:04;16.30;;;9.75;;
59492;SDS011;45497;43.996;22.876;2023-02-15T13:23:42;14.73;;;10.20;;
59492;SDS011;45497;43.996;22.876;2023-02-15T13:26:22;14.23;;;8.90;;
59492;SDS011;45497;43.996;22.876;2023-02-15T13:28:52;10.05;;;7.32;;
59492;SDS011;45497;43.996;22.876;2023-02-15T13:31:22;14.52;;;10.45;;
59492;SDS011;45497;43.996;22.876;2023-02-15T13:33:54;13.93;;;10.10;;
59492;SDS011;45497;43.996;22.876;2023-02-15T13:36:34;13.18;;;8.55;;
59492;SDS011;45497;43.996;22.876;2023-02-15T13:39:20;18.85;;;11.32;;
59492;SDS011;45497;43.996;22.876;2023-02-15T13:50:29;15.65;;;10.90;;
59492;SDS011;45497;43.996;22.876;2023-02-15T14:05:54;17.27;;;11.73;;
59492;SDS011;45497;43.996;22.876;2023-02-15T14:17:19;18.35;;;10.98;;
59492;SDS011;45497;43.996;22.876;2023-02-15T14:20:15;17.73;;;10.00;;
59492;SDS011;45497;43.996;22.876;2023-02-15T14:25:47;16.25;;;10.35;;
59492;SDS011;45497;43.996;22.876;2023-02-15T14:28:19;14.05;;;9.75;;
59492;SDS011;45497;43.996;22.876;2023-02-15T14:30:55;15.98;;;10.25;;
59492;SDS011;45497;43.996;22.876;2023-02-15T14:33:29;14.68;;;10.25;;
59492;SDS011;45497;43.996;22.876;2023-02-15T14:35:59;21.42;;;11.60;;
59492;SDS011;45497;43.996;22.876;2023-02-15T14:41:36;18.05;;;10.07;;
59492;SDS011;45497;43.996;22.876;2023-02-15T14:44:15;18.23;;;10.95;;
59492;SDS011;45497;43.996;22.876;2023-02-15T14:47:01;18.27;;;11.77;;
59492;SDS011;45497;43.996;22.876;2023-02-15T14:49:33;16.27;;;10.75;;
59492;SDS011;45497;43.996;22.876;2023-02-15T14:52:06;16.87;;;11.00;;
59492;SDS011;45497;43.996;22.876;2023-02-15T15:02:00;17.70;;;11.02;;
59492;SDS011;45497;43.996;22.876;2023-02-15T15:04:40;14.55;;;10.57;;
59492;SDS011;45497;43.996;22.876;2023-02-15T15:07:25;21.27;;;14.02;;
59492;SDS011;45497;43.996;22.876;2023-02-15T15:14:51;18.13;;;11.73;;
59492;SDS011;45497;43.996;22.876;2023-02-15T15:30:59;25.15;;;15.77;;
59492;SDS011;45497;43.996;22.876;2023-02-15T15:36:15;21.17;;;14.20;;
59492;SDS011;45497;43.996;22.876;2023-02-15T15:39:21;18.48;;;14.20;;
59492;SDS011;45497;43.996;22.876;2023-02-15T15:42:02;19.67;;;14.83;;
59492;SDS011;45497;43.996;22.876;2023-02-15T15:44:48;41.25;;;34.35;;
59492;SDS011;45497;43.996;22.876;2023-02-15T15:47:39;22.47;;;17.33;;
59492;SDS011;45497;43.996;22.876;2023-02-15T15:50:16;26.17;;;16.90;;
59492;SDS011;45497;43.996;22.876;2023-02-15T15:52:47;28.38;;;17.98;;
59492;SDS011;45497;43.996;22.876;2023-02-15T15:55:21;36.13;;;23.27;;
59492;SDS011;45497;43.996;22.876;2023-02-15T15:57:50;26.30;;;18.88;;
59492;SDS011;45497;43.996;22.876;2023-02-15T16:03:47;35.97;;;26.17;;
59492;SDS011;45497;43.996;22.876;2023-02-15T16:06:01;35.63;;;24.85;;
59492;SDS011;45497;43.996;22.876;2023-02-15T16:08:31;41.53;;;29.52;;
59492;SDS011;45497;43.996;22.876;2023-02-15T16:11:14;52.47;;;34.30;;
59492;SDS011;45497;43.996;22.876;2023-02-15T16:13:50;30.35;;;24.33;;
59492;SDS011;45497;43.996;22.876;2023-02-15T16:16:21;53.10;;;34.28;;
59492;SDS011;45497;43.996;22.876;2023-02-15T16:18:49;76.15;;;46.45;;
59492;SDS011;45497;43.996;22.876;2023-02-15T16:21:19;81.93;;;54.90;;
59492;SDS011;45497;43.996;22.876;2023-02-15T16:29:34;96.93;;;55.75;;
59492;SDS011;45497;43.996;22.876;2023-02-15T16:32:15;51.90;;;30.80;;
59492;SDS011;45497;43.996;22.876;2023-02-15T16:34:54;81.13;;;43.70;;
59492;SDS011;45497;43.996;22.876;2023-02-15T16:37:23;38.75;;;24.20;;
59492;SDS011;45497;43.996;22.876;2023-02-15T16:39:52;40.83;;;27.15;;
59492;SDS011;45497;43.996;22.876;2023-02-15T16:42:19;33.50;;;22.02;;
59492;SDS011;45497;43.996;22.876;2023-02-15T16:44:45;35.72;;;25.13;;
59492;SDS011;45497;43.996;22.876;2023-02-15T16:47:33;48.40;;;31.25;;
59492;SDS011;45497;43.996;22.876;2023-02-15T16:50:05;46.53;;;29.08;;
59492;SDS011;45497;43.996;22.876;2023-02-15T16:52:31;71.70;;;42.83;;
59492;SDS011;45497;43.996;22.876;2023-02-15T16:54:58;54.50;;;34.87;;
59492;SDS011;45497;43.996;22.876;2023-02-15T16:57:27;45.45;;;29.95;;
59492;SDS011;45497;43.996;22.876;2023-02-15T17:00:05;35.83;;;24.70;;
59492;SDS011;45497;43.996;22.876;2023-02-15T17:02:33;38.80;;;25.77;;
59492;SDS011;45497;43.996;22.876;2023-02-15T17:05:07;35.23;;;24.87;;
59492;SDS011;45497;43.996;22.876;2023-02-15T17:07:41;47.15;;;31.73;;
59492;SDS011;45497;43.996;22.876;2023-02-15T17:11:03;47.20;;;30.52;;
59492;SDS011;45497;43.996;22.876;2023-02-15T17:13:13;38.42;;;24.23;;
59492;SDS011;45497;43.996;22.876;2023-02-15T17:15:44;54.97;;;36.75;;
59492;SDS011;45497;43.996;22.876;2023-02-15T17:21:16;39.03;;;24.80;;
59492;SDS011;45497;43.996;22.876;2023-02-15T17:23:44;34.30;;;21.40;;
59492;SDS011;45497;43.996;22.876;2023-02-15T17:31:25;29.47;;;18.77;;
59492;SDS011;45497;43.996;22.876;2023-02-15T17:33:55;28.23;;;18.57;;
59492;SDS011;45497;43.996;22.876;2023-02-15T17:36:24;33.38;;;21.95;;
59492;SDS011;45497;43.996;22.876;2023-02-15T17:41:26;32.97;;;24.20;;
59492;SDS011;45497;43.996;22.876;2023-02-15T17:43:52;32.40;;;21.15;;
59492;SDS011;45497;43.996;22.876;2023-02-15T17:46:17;29.17;;;19.77;;
59492;SDS011;45497;43.996;22.876;2023-02-15T17:48:47;33.10;;;21.70;;
59492;SDS011;45497;43.996;22.876;2023-02-15T17:51:14;35.13;;;24.02;;
59492;SDS011;45497;43.996;22.876;2023-02-15T17:53:41;43.15;;;26.92;;
59492;SDS011;45497;43.996;22.876;2023-02-15T17:56:30;31.97;;;22.33;;
59492;SDS011;45497;43.996;22.876;2023-02-15T17:59:00;111.28;;;53.67;;
59492;SDS011;45497;43.996;22.876;2023-02-15T18:01:25;81.97;;;47.97;;